Etusivu
METAR-TAF:

METAR-TAF

Lentoasemat :

Findelin kansainvälinen lentoasema

Luxemburg, Luxemburg

Leveyspiiri: 49-37N, Pituuspiiri: 006-13E, korkeus merenpinnasta: 376 m

Tämänhetkinen sää

Tämä raportti tehtiin 35 minuuttia sitten, kello 15.50 UTC
Tuuli 10 kn koillisesta, vaihdellen pohjoisen ja idän/koillisen välillä
Lämpötila 15°C
Kosteus 29%
Ilmanpaine 1031 hPa
Näkyvyys 10 km tai enemmän
ei pilviä alle 1500 m:ssä eikä cumulonimbus-pilviä

METAR: ELLX 211550Z 04010KT 010V070 CAVOK 15/M03 Q1031 NOSIG

Aika: 17:25 (16:25 UTC)

Sääennuste

Tämä raportti tehtiin 5 tuntia ja 25 minuuttia sitten, kello 11.00 UTC
Ennuste voimassa 21. päivästä klo 12 UTC - 22. päivään klo 18 UTC
Tuuli 7 kn idästä/koillisesta
Näkyvyys 10 km tai enemmän
ei pilviä alle 1500 m:ssä eikä cumulonimbus-pilviä

TAF: ELLX 211100Z 2112/2218 06007KT CAVOK

Säähavainnot ja -ennusteet yli 4000 lentoasemalta (METAR- ja TAF-raportit).

Käytössä olevat sääasemat on merkitty karttaan keltaisilla ja punaisilla pisteillä.

Aseta hiiri pisteen päälle nähdäksesi sääaseman nimen.

Klikkaa sitten nähdäksesi säähavainnot ja -ennusteet.

Kartan vaihtaminen: klikkaa mustalla rastilla varustettuja vihreitä pisteitä, niin voit zoomata sisään; viivalla varustettua vihreää pistettä, niin voit zoomata ulos tai vihreitä nuolia, niin pääset viereisille kartoille.


METAR-TAF: